sensor_id;sensor_type;location;lat;lon;timestamp;temperature;humidity
79494;SHT31;68951;53.130;18.104;2023-05-07T00:00:36;8.02;72.06
79494;SHT31;68951;53.130;18.104;2023-05-07T00:03:19;7.96;72.05
79494;SHT31;68951;53.130;18.104;2023-05-07T00:05:46;7.91;72.10
79494;SHT31;68951;53.130;18.104;2023-05-07T00:08:13;7.92;72.10
79494;SHT31;68951;53.130;18.104;2023-05-07T00:10:40;7.88;72.06
79494;SHT31;68951;53.130;18.104;2023-05-07T00:13:07;7.84;72.04
79494;SHT31;68951;53.130;18.104;2023-05-07T00:15:34;7.80;72.01
79494;SHT31;68951;53.130;18.104;2023-05-07T00:18:01;7.74;72.00
79494;SHT31;68951;53.130;18.104;2023-05-07T00:20:28;7.65;72.00
79494;SHT31;68951;53.130;18.104;2023-05-07T00:22:54;7.59;71.97
79494;SHT31;68951;53.130;18.104;2023-05-07T00:25:21;7.49;71.96
79494;SHT31;68951;53.130;18.104;2023-05-07T00:27:48;7.43;71.95
79494;SHT31;68951;53.130;18.104;2023-05-07T00:30:15;7.39;71.97
79494;SHT31;68951;53.130;18.104;2023-05-07T00:32:42;7.34;71.97
79494;SHT31;68951;53.130;18.104;2023-05-07T00:35:11;7.31;71.97
79494;SHT31;68951;53.130;18.104;2023-05-07T00:37:38;7.28;71.92
79494;SHT31;68951;53.130;18.104;2023-05-07T00:40:06;7.20;71.90
79494;SHT31;68951;53.130;18.104;2023-05-07T00:42:34;7.14;71.92
79494;SHT31;68951;53.130;18.104;2023-05-07T00:45:01;7.07;71.92
79494;SHT31;68951;53.130;18.104;2023-05-07T00:47:28;7.00;72.00
79494;SHT31;68951;53.130;18.104;2023-05-07T00:49:55;6.96;72.00
79494;SHT31;68951;53.130;18.104;2023-05-07T00:52:23;6.90;72.00
79494;SHT31;68951;53.130;18.104;2023-05-07T00:54:53;6.87;72.00
79494;SHT31;68951;53.130;18.104;2023-05-07T00:57:21;6.88;72.00
79494;SHT31;68951;53.130;18.104;2023-05-07T00:59:50;6.87;72.00
79494;SHT31;68951;53.130;18.104;2023-05-07T01:02:18;6.80;71.94
79494;SHT31;68951;53.130;18.104;2023-05-07T01:04:45;6.76;71.94
79494;SHT31;68951;53.130;18.104;2023-05-07T01:07:11;6.71;71.90
79494;SHT31;68951;53.130;18.104;2023-05-07T01:09:39;6.66;71.90
79494;SHT31;68951;53.130;18.104;2023-05-07T01:12:06;6.59;71.90
79494;SHT31;68951;53.130;18.104;2023-05-07T01:14:34;6.51;71.86
79494;SHT31;68951;53.130;18.104;2023-05-07T01:17:01;6.43;71.87
79494;SHT31;68951;53.130;18.104;2023-05-07T01:19:28;6.37;71.88
79494;SHT31;68951;53.130;18.104;2023-05-07T01:21:58;6.35;71.89
79494;SHT31;68951;53.130;18.104;2023-05-07T01:24:33;6.38;71.88
79494;SHT31;68951;53.130;18.104;2023-05-07T01:27:02;6.35;71.81
79494;SHT31;68951;53.130;18.104;2023-05-07T01:29:29;6.32;71.80
79494;SHT31;68951;53.130;18.104;2023-05-07T01:31:57;6.28;71.80
79494;SHT31;68951;53.130;18.104;2023-05-07T01:34:27;6.23;71.74
79494;SHT31;68951;53.130;18.104;2023-05-07T01:36:57;6.18;71.70
79494;SHT31;68951;53.130;18.104;2023-05-07T01:39:26;6.10;71.70
79494;SHT31;68951;53.130;18.104;2023-05-07T01:41:55;6.05;71.70
79494;SHT31;68951;53.130;18.104;2023-05-07T01:44:22;5.98;71.64
79494;SHT31;68951;53.130;18.104;2023-05-07T01:46:50;5.90;71.63
79494;SHT31;68951;53.130;18.104;2023-05-07T01:49:18;5.84;71.65
79494;SHT31;68951;53.130;18.104;2023-05-07T01:51:45;5.84;71.63
79494;SHT31;68951;53.130;18.104;2023-05-07T01:54:12;5.83;71.63
79494;SHT31;68951;53.130;18.104;2023-05-07T01:56:40;5.82;71.60
79494;SHT31;68951;53.130;18.104;2023-05-07T01:59:07;5.78;71.60
79494;SHT31;68951;53.130;18.104;2023-05-07T02:01:34;5.70;71.56
79494;SHT31;68951;53.130;18.104;2023-05-07T02:04:01;5.60;71.50
79494;SHT31;68951;53.130;18.104;2023-05-07T02:06:28;5.52;71.52
79494;SHT31;68951;53.130;18.104;2023-05-07T02:08:54;5.46;71.57
79494;SHT31;68951;53.130;18.104;2023-05-07T02:11:21;5.41;71.60
79494;SHT31;68951;53.130;18.104;2023-05-07T02:13:48;5.36;71.60
79494;SHT31;68951;53.130;18.104;2023-05-07T02:16:15;5.34;71.60
79494;SHT31;68951;53.130;18.104;2023-05-07T02:18:42;5.33;71.60
79494;SHT31;68951;53.130;18.104;2023-05-07T02:21:09;5.30;71.62
79494;SHT31;68951;53.130;18.104;2023-05-07T02:23:35;5.30;71.61
79494;SHT31;68951;53.130;18.104;2023-05-07T02:26:03;5.26;71.60
79494;SHT31;68951;53.130;18.104;2023-05-07T02:28:30;5.22;71.60
79494;SHT31;68951;53.130;18.104;2023-05-07T02:30:57;5.19;71.60
79494;SHT31;68951;53.130;18.104;2023-05-07T02:33:26;5.18;71.62
79494;SHT31;68951;53.130;18.104;2023-05-07T02:35:52;5.18;71.60
79494;SHT31;68951;53.130;18.104;2023-05-07T02:38:19;5.12;71.60
79494;SHT31;68951;53.130;18.104;2023-05-07T02:40:46;5.04;71.57
79494;SHT31;68951;53.130;18.104;2023-05-07T02:43:13;4.97;71.57
79494;SHT31;68951;53.130;18.104;2023-05-07T02:45:40;4.97;71.57
79494;SHT31;68951;53.130;18.104;2023-05-07T02:48:07;4.95;71.52
79494;SHT31;68951;53.130;18.104;2023-05-07T02:50:33;4.93;71.53
79494;SHT31;68951;53.130;18.104;2023-05-07T02:53:01;4.91;71.52
79494;SHT31;68951;53.130;18.104;2023-05-07T02:55:27;4.88;71.50
79494;SHT31;68951;53.130;18.104;2023-05-07T02:57:54;4.83;71.50
79494;SHT31;68951;53.130;18.104;2023-05-07T03:00:21;4.78;71.50
79494;SHT31;68951;53.130;18.104;2023-05-07T03:02:48;4.76;71.55
79494;SHT31;68951;53.130;18.104;2023-05-07T03:05:15;4.73;71.52
79494;SHT31;68951;53.130;18.104;2023-05-07T03:07:42;4.69;71.51
79494;SHT31;68951;53.130;18.104;2023-05-07T03:10:11;4.63;71.50
79494;SHT31;68951;53.130;18.104;2023-05-07T03:12:39;4.59;71.50
79494;SHT31;68951;53.130;18.104;2023-05-07T03:15:06;4.61;71.53
79494;SHT31;68951;53.130;18.104;2023-05-07T03:17:34;4.61;71.51
79494;SHT31;68951;53.130;18.104;2023-05-07T03:20:01;4.61;71.50
79494;SHT31;68951;53.130;18.104;2023-05-07T03:22:28;4.61;71.50
79494;SHT31;68951;53.130;18.104;2023-05-07T03:24:54;4.62;71.51
79494;SHT31;68951;53.130;18.104;2023-05-07T03:27:21;4.62;71.50
79494;SHT31;68951;53.130;18.104;2023-05-07T03:29:48;4.59;71.50
79494;SHT31;68951;53.130;18.104;2023-05-07T03:32:15;4.55;71.50
79494;SHT31;68951;53.130;18.104;2023-05-07T03:34:42;4.54;71.50
79494;SHT31;68951;53.130;18.104;2023-05-07T03:37:08;4.56;71.53
79494;SHT31;68951;53.130;18.104;2023-05-07T03:39:35;4.56;71.57
79494;SHT31;68951;53.130;18.104;2023-05-07T03:42:02;4.56;71.56
79494;SHT31;68951;53.130;18.104;2023-05-07T03:44:29;4.59;71.57
79494;SHT31;68951;53.130;18.104;2023-05-07T03:46:56;4.64;71.60
79494;SHT31;68951;53.130;18.104;2023-05-07T03:49:23;4.68;71.59
79494;SHT31;68951;53.130;18.104;2023-05-07T03:51:50;4.66;71.56
79494;SHT31;68951;53.130;18.104;2023-05-07T03:54:16;4.65;71.57
79494;SHT31;68951;53.130;18.104;2023-05-07T03:56:43;4.64;71.58
79494;SHT31;68951;53.130;18.104;2023-05-07T03:59:10;4.63;71.60
79494;SHT31;68951;53.130;18.104;2023-05-07T04:01:41;4.61;71.60
79494;SHT31;68951;53.130;18.104;2023-05-07T04:04:08;4.61;71.64
79494;SHT31;68951;53.130;18.104;2023-05-07T04:06:35;4.61;71.70
79494;SHT31;68951;53.130;18.104;2023-05-07T04:09:01;4.66;71.70
79494;SHT31;68951;53.130;18.104;2023-05-07T04:11:28;4.72;71.80
79494;SHT31;68951;53.130;18.104;2023-05-07T04:13:55;4.77;71.87
79494;SHT31;68951;53.130;18.104;2023-05-07T04:16:22;4.84;71.90
79494;SHT31;68951;53.130;18.104;2023-05-07T04:18:49;4.88;71.91
79494;SHT31;68951;53.130;18.104;2023-05-07T04:21:16;4.93;71.97
79494;SHT31;68951;53.130;18.104;2023-05-07T04:23:45;4.96;72.00
79494;SHT31;68951;53.130;18.104;2023-05-07T04:26:13;5.01;72.05
79494;SHT31;68951;53.130;18.104;2023-05-07T04:28:42;5.05;72.12
79494;SHT31;68951;53.130;18.104;2023-05-07T04:31:08;5.09;72.17
79494;SHT31;68951;53.130;18.104;2023-05-07T04:33:35;5.19;72.20
79494;SHT31;68951;53.130;18.104;2023-05-07T04:36:02;5.28;72.28
79494;SHT31;68951;53.130;18.104;2023-05-07T04:38:30;5.40;72.32
79494;SHT31;68951;53.130;18.104;2023-05-07T04:41:04;5.50;72.39
79494;SHT31;68951;53.130;18.104;2023-05-07T04:43:32;5.61;72.43
79494;SHT31;68951;53.130;18.104;2023-05-07T04:45:59;5.72;72.51
79494;SHT31;68951;53.130;18.104;2023-05-07T04:48:26;5.82;72.60
79494;SHT31;68951;53.130;18.104;2023-05-07T04:50:53;5.90;72.69
79494;SHT31;68951;53.130;18.104;2023-05-07T04:53:20;5.98;72.76
79494;SHT31;68951;53.130;18.104;2023-05-07T04:55:48;6.10;72.83
79494;SHT31;68951;53.130;18.104;2023-05-07T04:58:14;6.23;72.93
79494;SHT31;68951;53.130;18.104;2023-05-07T05:00:41;6.39;73.04
79494;SHT31;68951;53.130;18.104;2023-05-07T05:03:08;6.56;73.10
79494;SHT31;68951;53.130;18.104;2023-05-07T05:05:35;6.70;73.11
79494;SHT31;68951;53.130;18.104;2023-05-07T05:08:02;6.83;73.17
79494;SHT31;68951;53.130;18.104;2023-05-07T05:10:29;6.99;73.20
79494;SHT31;68951;53.130;18.104;2023-05-07T05:12:56;7.15;73.20
79494;SHT31;68951;53.130;18.104;2023-05-07T05:15:23;7.33;73.20
79494;SHT31;68951;53.130;18.104;2023-05-07T05:17:50;7.50;73.13
79494;SHT31;68951;53.130;18.104;2023-05-07T05:20:16;7.63;73.09
79494;SHT31;68951;53.130;18.104;2023-05-07T05:22:43;7.78;73.04
79494;SHT31;68951;53.130;18.104;2023-05-07T05:25:10;7.92;72.90
79494;SHT31;68951;53.130;18.104;2023-05-07T05:27:37;8.04;72.76
79494;SHT31;68951;53.130;18.104;2023-05-07T05:30:04;8.13;72.59
79494;SHT31;68951;53.130;18.104;2023-05-07T05:32:32;8.19;72.42
79494;SHT31;68951;53.130;18.104;2023-05-07T05:34:59;8.28;72.26
79494;SHT31;68951;53.130;18.104;2023-05-07T05:37:26;8.35;72.14
79494;SHT31;68951;53.130;18.104;2023-05-07T05:39:53;8.42;72.02
79494;SHT31;68951;53.130;18.104;2023-05-07T05:42:21;8.49;71.94
79494;SHT31;68951;53.130;18.104;2023-05-07T05:44:49;8.58;71.78
79494;SHT31;68951;53.130;18.104;2023-05-07T05:47:15;8.68;71.62
79494;SHT31;68951;53.130;18.104;2023-05-07T05:49:42;8.81;71.48
79494;SHT31;68951;53.130;18.104;2023-05-07T05:52:11;8.91;71.37
79494;SHT31;68951;53.130;18.104;2023-05-07T05:54:40;9.01;71.28
79494;SHT31;68951;53.130;18.104;2023-05-07T05:57:06;9.11;71.17
79494;SHT31;68951;53.130;18.104;2023-05-07T05:59:33;9.23;71.05
79494;SHT31;68951;53.130;18.104;2023-05-07T06:02:00;9.31;70.97
79494;SHT31;68951;53.130;18.104;2023-05-07T06:04:27;9.38;70.90
79494;SHT31;68951;53.130;18.104;2023-05-07T06:06:54;9.44;70.80
79494;SHT31;68951;53.130;18.104;2023-05-07T06:09:21;9.45;70.69
79494;SHT31;68951;53.130;18.104;2023-05-07T06:11:48;9.47;70.56
79494;SHT31;68951;53.130;18.104;2023-05-07T06:14:14;9.51;70.47
79494;SHT31;68951;53.130;18.104;2023-05-07T06:16:42;9.59;70.38
79494;SHT31;68951;53.130;18.104;2023-05-07T06:19:08;9.64;70.29
79494;SHT31;68951;53.130;18.104;2023-05-07T06:21:35;9.76;70.22
79494;SHT31;68951;53.130;18.104;2023-05-07T06:24:02;9.88;70.08
79494;SHT31;68951;53.130;18.104;2023-05-07T06:26:29;9.98;69.94
79494;SHT31;68951;53.130;18.104;2023-05-07T06:28:56;10.05;69.82
79494;SHT31;68951;53.130;18.104;2023-05-07T06:31:23;10.17;69.67
79494;SHT31;68951;53.130;18.104;2023-05-07T06:33:55;10.25;69.49
79494;SHT31;68951;53.130;18.104;2023-05-07T06:36:22;10.34;69.32
79494;SHT31;68951;53.130;18.104;2023-05-07T06:38:49;10.38;69.12
79494;SHT31;68951;53.130;18.104;2023-05-07T06:41:16;10.45;69.00
79494;SHT31;68951;53.130;18.104;2023-05-07T06:43:42;10.53;68.89
79494;SHT31;68951;53.130;18.104;2023-05-07T06:46:09;10.56;68.69
79494;SHT31;68951;53.130;18.104;2023-05-07T06:48:36;10.61;68.56
79494;SHT31;68951;53.130;18.104;2023-05-07T06:51:03;10.64;68.34
79494;SHT31;68951;53.130;18.104;2023-05-07T06:53:30;10.67;68.19
79494;SHT31;68951;53.130;18.104;2023-05-07T06:55:57;10.69;68.09
79494;SHT31;68951;53.130;18.104;2023-05-07T06:58:24;10.76;68.00
79494;SHT31;68951;53.130;18.104;2023-05-07T07:00:51;10.80;67.85
79494;SHT31;68951;53.130;18.104;2023-05-07T07:03:18;10.84;67.67
79494;SHT31;68951;53.130;18.104;2023-05-07T07:05:44;10.95;67.48
79494;SHT31;68951;53.130;18.104;2023-05-07T07:08:11;11.04;67.23
79494;SHT31;68951;53.130;18.104;2023-05-07T07:10:38;11.10;66.96
79494;SHT31;68951;53.130;18.104;2023-05-07T07:13:05;11.16;66.70
79494;SHT31;68951;53.130;18.104;2023-05-07T07:15:32;11.20;66.46
79494;SHT31;68951;53.130;18.104;2023-05-07T07:17:59;11.27;66.13
79494;SHT31;68951;53.130;18.104;2023-05-07T07:20:26;11.37;65.82
79494;SHT31;68951;53.130;18.104;2023-05-07T07:22:53;11.46;65.44
79494;SHT31;68951;53.130;18.104;2023-05-07T07:25:20;11.54;65.07
79494;SHT31;68951;53.130;18.104;2023-05-07T07:27:47;11.63;64.76
79494;SHT31;68951;53.130;18.104;2023-05-07T07:30:14;11.73;64.46
79494;SHT31;68951;53.130;18.104;2023-05-07T07:32:40;11.80;64.05
79494;SHT31;68951;53.130;18.104;2023-05-07T07:35:09;11.86;63.63
79494;SHT31;68951;53.130;18.104;2023-05-07T07:37:36;11.93;63.27
79494;SHT31;68951;53.130;18.104;2023-05-07T07:40:03;11.99;62.90
79494;SHT31;68951;53.130;18.104;2023-05-07T07:42:31;12.04;62.57
79494;SHT31;68951;53.130;18.104;2023-05-07T07:44:57;12.12;62.28
79494;SHT31;68951;53.130;18.104;2023-05-07T07:47:24;12.21;61.97
79494;SHT31;68951;53.130;18.104;2023-05-07T07:49:51;12.26;61.59
79494;SHT31;68951;53.130;18.104;2023-05-07T07:52:18;12.27;61.12
79494;SHT31;68951;53.130;18.104;2023-05-07T07:54:45;12.30;60.79
79494;SHT31;68951;53.130;18.104;2023-05-07T07:57:12;12.37;60.49
79494;SHT31;68951;53.130;18.104;2023-05-07T07:59:39;12.42;60.12
79494;SHT31;68951;53.130;18.104;2023-05-07T08:02:06;12.47;59.74
79494;SHT31;68951;53.130;18.104;2023-05-07T08:04:33;12.54;59.41
79494;SHT31;68951;53.130;18.104;2023-05-07T08:06:59;12.61;59.09
79494;SHT31;68951;53.130;18.104;2023-05-07T08:09:26;12.65;58.68
79494;SHT31;68951;53.130;18.104;2023-05-07T08:11:53;12.69;58.41
79494;SHT31;68951;53.130;18.104;2023-05-07T08:14:21;12.73;58.02
79494;SHT31;68951;53.130;18.104;2023-05-07T08:16:48;12.83;57.86
79494;SHT31;68951;53.130;18.104;2023-05-07T08:19:15;12.96;57.83
79494;SHT31;68951;53.130;18.104;2023-05-07T08:21:42;13.07;57.64
79494;SHT31;68951;53.130;18.104;2023-05-07T08:24:08;13.22;57.49
79494;SHT31;68951;53.130;18.104;2023-05-07T08:26:36;13.29;56.94
79494;SHT31;68951;53.130;18.104;2023-05-07T08:29:05;13.34;56.45
79494;SHT31;68951;53.130;18.104;2023-05-07T08:31:32;13.44;56.24
79494;SHT31;68951;53.130;18.104;2023-05-07T08:33:59;13.53;55.86
79494;SHT31;68951;53.130;18.104;2023-05-07T08:36:26;13.63;55.58
79494;SHT31;68951;53.130;18.104;2023-05-07T08:38:54;13.77;55.42
79494;SHT31;68951;53.130;18.104;2023-05-07T08:41:22;13.92;55.35
79494;SHT31;68951;53.130;18.104;2023-05-07T08:43:49;14.06;55.02
79494;SHT31;68951;53.130;18.104;2023-05-07T08:46:18;14.14;54.69
79494;SHT31;68951;53.130;18.104;2023-05-07T08:48:48;14.25;54.40
79494;SHT31;68951;53.130;18.104;2023-05-07T08:51:20;14.38;54.11
79494;SHT31;68951;53.130;18.104;2023-05-07T08:53:48;14.50;53.77
79494;SHT31;68951;53.130;18.104;2023-05-07T08:56:17;14.62;53.50
79494;SHT31;68951;53.130;18.104;2023-05-07T08:58:44;14.79;53.34
79494;SHT31;68951;53.130;18.104;2023-05-07T09:01:15;14.95;53.02
79494;SHT31;68951;53.130;18.104;2023-05-07T09:03:46;15.08;52.69
79494;SHT31;68951;53.130;18.104;2023-05-07T09:06:13;15.21;52.42
79494;SHT31;68951;53.130;18.104;2023-05-07T09:08:43;15.43;52.27
79494;SHT31;68951;53.130;18.104;2023-05-07T09:11:19;15.64;52.06
79494;SHT31;68951;53.130;18.104;2023-05-07T09:13:48;15.80;51.82
79494;SHT31;68951;53.130;18.104;2023-05-07T09:16:20;15.93;51.43
79494;SHT31;68951;53.130;18.104;2023-05-07T09:18:50;16.03;51.14
79494;SHT31;68951;53.130;18.104;2023-05-07T09:21:20;16.18;50.78
79494;SHT31;68951;53.130;18.104;2023-05-07T09:23:52;16.36;50.47
79494;SHT31;68951;53.130;18.104;2023-05-07T09:26:22;16.46;50.03
79494;SHT31;68951;53.130;18.104;2023-05-07T09:28:50;16.61;49.67
79494;SHT31;68951;53.130;18.104;2023-05-07T09:31:18;16.79;49.39
79494;SHT31;68951;53.130;18.104;2023-05-07T09:33:46;16.94;49.07
79494;SHT31;68951;53.130;18.104;2023-05-07T09:36:13;17.09;48.71
79494;SHT31;68951;53.130;18.104;2023-05-07T09:38:40;17.13;48.17
79494;SHT31;68951;53.130;18.104;2023-05-07T09:41:08;17.30;48.08
79494;SHT31;68951;53.130;18.104;2023-05-07T09:43:38;17.54;47.84
79494;SHT31;68951;53.130;18.104;2023-05-07T09:46:12;17.77;47.54
79494;SHT31;68951;53.130;18.104;2023-05-07T09:48:42;17.88;47.11
79494;SHT31;68951;53.130;18.104;2023-05-07T09:53:56;18.48;46.52
79494;SHT31;68951;53.130;18.104;2023-05-07T09:56:26;18.84;46.29
79494;SHT31;68951;53.130;18.104;2023-05-07T09:58:56;19.14;45.99
79494;SHT31;68951;53.130;18.104;2023-05-07T10:01:27;19.32;45.49
79494;SHT31;68951;53.130;18.104;2023-05-07T10:03:54;19.47;45.04
79494;SHT31;68951;53.130;18.104;2023-05-07T10:06:23;19.57;44.60
79494;SHT31;68951;53.130;18.104;2023-05-07T10:08:54;19.26;44.25
79494;SHT31;68951;53.130;18.104;2023-05-07T10:11:22;19.27;43.94
79494;SHT31;68951;53.130;18.104;2023-05-07T10:13:49;19.52;43.75
79494;SHT31;68951;53.130;18.104;2023-05-07T10:16:19;19.83;43.43
79494;SHT31;68951;53.130;18.104;2023-05-07T10:18:47;20.14;43.15
79494;SHT31;68951;53.130;18.104;2023-05-07T10:21:18;20.42;42.91
79494;SHT31;68951;53.130;18.104;2023-05-07T10:23:49;20.22;42.63
79494;SHT31;68951;53.130;18.104;2023-05-07T10:26:24;19.90;42.46
79494;SHT31;68951;53.130;18.104;2023-05-07T10:28:55;19.57;42.33
79494;SHT31;68951;53.130;18.104;2023-05-07T10:34:26;20.14;41.87
79494;SHT31;68951;53.130;18.104;2023-05-07T10:37:02;20.67;41.48
79494;SHT31;68951;53.130;18.104;2023-05-07T10:39:30;21.20;41.20
79494;SHT31;68951;53.130;18.104;2023-05-07T10:42:07;21.50;40.67
79494;SHT31;68951;53.130;18.104;2023-05-07T10:44:35;21.74;40.35
79494;SHT31;68951;53.130;18.104;2023-05-07T10:47:07;21.85;39.72
79494;SHT31;68951;53.130;18.104;2023-05-07T10:52:11;21.38;39.15
79494;SHT31;68951;53.130;18.104;2023-05-07T10:57:43;21.43;38.91
79494;SHT31;68951;53.130;18.104;2023-05-07T11:05:30;22.31;38.54
79494;SHT31;68951;53.130;18.104;2023-05-07T11:08:00;22.78;38.09
79494;SHT31;68951;53.130;18.104;2023-05-07T11:13:44;22.77;37.70
79494;SHT31;68951;53.130;18.104;2023-05-07T11:16:22;22.11;37.52
79494;SHT31;68951;53.130;18.104;2023-05-07T11:18:52;21.88;37.35
79494;SHT31;68951;53.130;18.104;2023-05-07T11:21:40;22.40;37.32
79494;SHT31;68951;53.130;18.104;2023-05-07T11:24:08;22.60;37.15
79494;SHT31;68951;53.130;18.104;2023-05-07T11:29:19;23.72;37.96
79494;SHT31;68951;53.130;18.104;2023-05-07T11:31:49;23.87;37.52
79494;SHT31;68951;53.130;18.104;2023-05-07T11:34:21;24.02;37.53
79494;SHT31;68951;53.130;18.104;2023-05-07T11:36:51;24.17;37.52
79494;SHT31;68951;53.130;18.104;2023-05-07T11:42:00;23.41;37.92
79494;SHT31;68951;53.130;18.104;2023-05-07T11:44:41;23.11;38.37
79494;SHT31;68951;53.130;18.104;2023-05-07T11:47:16;23.26;38.37
79494;SHT31;68951;53.130;18.104;2023-05-07T11:49:48;23.55;38.03
79494;SHT31;68951;53.130;18.104;2023-05-07T11:52:17;23.64;37.90
79494;SHT31;68951;53.130;18.104;2023-05-07T11:54:52;24.09;37.62
79494;SHT31;68951;53.130;18.104;2023-05-07T11:57:25;23.87;37.58
79494;SHT31;68951;53.130;18.104;2023-05-07T11:59:56;23.64;37.52
79494;SHT31;68951;53.130;18.104;2023-05-07T12:02:25;23.67;37.37
79494;SHT31;68951;53.130;18.104;2023-05-07T12:04:53;23.94;36.94
79494;SHT31;68951;53.130;18.104;2023-05-07T12:07:21;23.82;36.71
79494;SHT31;68951;53.130;18.104;2023-05-07T12:09:49;23.93;36.74
79494;SHT31;68951;53.130;18.104;2023-05-07T12:12:16;23.82;36.53
79494;SHT31;68951;53.130;18.104;2023-05-07T12:14:45;23.96;36.36
79494;SHT31;68951;53.130;18.104;2023-05-07T12:17:13;24.16;36.12
79494;SHT31;68951;53.130;18.104;2023-05-07T12:19:41;24.59;35.73
79494;SHT31;68951;53.130;18.104;2023-05-07T12:22:10;24.88;35.41
79494;SHT31;68951;53.130;18.104;2023-05-07T12:24:48;25.22;34.99
79494;SHT31;68951;53.130;18.104;2023-05-07T12:27:22;25.10;34.73
79494;SHT31;68951;53.130;18.104;2023-05-07T12:29:50;25.36;34.55
79494;SHT31;68951;53.130;18.104;2023-05-07T12:32:18;25.71;34.30
79494;SHT31;68951;53.130;18.104;2023-05-07T12:34:51;26.06;34.11
79494;SHT31;68951;53.130;18.104;2023-05-07T12:37:22;25.97;33.41
79494;SHT31;68951;53.130;18.104;2023-05-07T12:40:08;25.93;33.06
79494;SHT31;68951;53.130;18.104;2023-05-07T12:42:38;25.70;32.68
79494;SHT31;68951;53.130;18.104;2023-05-07T12:45:07;26.01;32.70
79494;SHT31;68951;53.130;18.104;2023-05-07T12:47:45;26.30;32.42
79494;SHT31;68951;53.130;18.104;2023-05-07T12:50:16;26.50;32.14
79494;SHT31;68951;53.130;18.104;2023-05-07T12:52:43;26.72;32.06
79494;SHT31;68951;53.130;18.104;2023-05-07T12:55:16;26.81;31.51
79494;SHT31;68951;53.130;18.104;2023-05-07T12:57:45;26.93;31.54
79494;SHT31;68951;53.130;18.104;2023-05-07T13:00:15;27.10;31.73
79494;SHT31;68951;53.130;18.104;2023-05-07T13:02:43;27.43;32.04
79494;SHT31;68951;53.130;18.104;2023-05-07T13:05:11;27.73;31.68
79494;SHT31;68951;53.130;18.104;2023-05-07T13:07:38;27.93;31.63
79494;SHT31;68951;53.130;18.104;2023-05-07T13:10:07;27.55;31.69
79494;SHT31;68951;53.130;18.104;2023-05-07T13:12:34;27.16;31.38
79494;SHT31;68951;53.130;18.104;2023-05-07T13:15:01;26.85;31.18
79494;SHT31;68951;53.130;18.104;2023-05-07T13:17:28;26.96;31.93
79494;SHT31;68951;53.130;18.104;2023-05-07T13:19:57;27.33;32.14
79494;SHT31;68951;53.130;18.104;2023-05-07T13:22:24;27.07;31.05
79494;SHT31;68951;53.130;18.104;2023-05-07T13:24:51;26.69;30.47
79494;SHT31;68951;53.130;18.104;2023-05-07T13:27:18;26.84;30.75
79494;SHT31;68951;53.130;18.104;2023-05-07T13:29:45;26.71;30.70
79494;SHT31;68951;53.130;18.104;2023-05-07T13:32:12;26.42;30.90
79494;SHT31;68951;53.130;18.104;2023-05-07T13:34:39;26.23;30.96
79494;SHT31;68951;53.130;18.104;2023-05-07T13:37:06;26.42;31.14
79494;SHT31;68951;53.130;18.104;2023-05-07T13:39:34;26.54;30.55
79494;SHT31;68951;53.130;18.104;2023-05-07T13:42:01;26.36;30.46
79494;SHT31;68951;53.130;18.104;2023-05-07T13:44:28;26.30;30.55
79494;SHT31;68951;53.130;18.104;2023-05-07T13:46:55;26.31;30.40
79494;SHT31;68951;53.130;18.104;2023-05-07T13:49:22;26.40;30.69
79494;SHT31;68951;53.130;18.104;2023-05-07T13:51:50;26.16;30.01
79494;SHT31;68951;53.130;18.104;2023-05-07T13:54:16;26.03;30.10
79494;SHT31;68951;53.130;18.104;2023-05-07T13:56:44;26.25;29.91
79494;SHT31;68951;53.130;18.104;2023-05-07T13:59:11;26.52;29.78
79494;SHT31;68951;53.130;18.104;2023-05-07T14:01:40;26.87;29.46
79494;SHT31;68951;53.130;18.104;2023-05-07T14:04:07;27.10;29.26
79494;SHT31;68951;53.130;18.104;2023-05-07T14:06:34;26.97;29.07
79494;SHT31;68951;53.130;18.104;2023-05-07T14:09:01;26.83;28.86
79494;SHT31;68951;53.130;18.104;2023-05-07T14:11:28;26.31;28.74
79494;SHT31;68951;53.130;18.104;2023-05-07T14:13:54;26.10;28.77
79494;SHT31;68951;53.130;18.104;2023-05-07T14:16:23;26.39;29.56
79494;SHT31;68951;53.130;18.104;2023-05-07T14:18:49;26.20;28.87
79494;SHT31;68951;53.130;18.104;2023-05-07T14:21:16;25.59;28.59
79494;SHT31;68951;53.130;18.104;2023-05-07T14:23:43;25.63;29.10
79494;SHT31;68951;53.130;18.104;2023-05-07T14:26:11;25.84;29.23
79494;SHT31;68951;53.130;18.104;2023-05-07T14:28:38;25.81;29.43
79494;SHT31;68951;53.130;18.104;2023-05-07T14:31:05;25.81;29.77
79494;SHT31;68951;53.130;18.104;2023-05-07T14:33:33;25.76;29.62
79494;SHT31;68951;53.130;18.104;2023-05-07T14:36:00;25.54;29.93
79494;SHT31;68951;53.130;18.104;2023-05-07T14:38:27;25.18;29.51
79494;SHT31;68951;53.130;18.104;2023-05-07T14:40:54;24.54;29.78
79494;SHT31;68951;53.130;18.104;2023-05-07T14:43:22;24.42;30.86
79494;SHT31;68951;53.130;18.104;2023-05-07T14:45:49;24.31;31.45
79494;SHT31;68951;53.130;18.104;2023-05-07T14:48:16;24.15;32.21
79494;SHT31;68951;53.130;18.104;2023-05-07T14:50:46;23.95;32.16
79494;SHT31;68951;53.130;18.104;2023-05-07T14:53:14;23.48;31.70
79494;SHT31;68951;53.130;18.104;2023-05-07T14:55:42;23.36;31.92
79494;SHT31;68951;53.130;18.104;2023-05-07T14:58:10;23.22;31.66
79494;SHT31;68951;53.130;18.104;2023-05-07T15:00:38;23.10;32.26
79494;SHT31;68951;53.130;18.104;2023-05-07T15:03:06;22.78;32.36
79494;SHT31;68951;53.130;18.104;2023-05-07T15:05:37;22.50;33.00
79494;SHT31;68951;53.130;18.104;2023-05-07T15:08:04;22.15;33.11
79494;SHT31;68951;53.130;18.104;2023-05-07T15:10:34;21.80;33.15
79494;SHT31;68951;53.130;18.104;2023-05-07T15:13:07;21.63;33.59
79494;SHT31;68951;53.130;18.104;2023-05-07T15:15:36;21.56;34.29
79494;SHT31;68951;53.130;18.104;2023-05-07T15:18:04;21.46;34.01
79494;SHT31;68951;53.130;18.104;2023-05-07T15:20:31;21.23;33.71
79494;SHT31;68951;53.130;18.104;2023-05-07T15:23:00;21.01;33.50
79494;SHT31;68951;53.130;18.104;2023-05-07T15:25:26;20.78;33.26
79494;SHT31;68951;53.130;18.104;2023-05-07T15:27:53;20.53;33.22
79494;SHT31;68951;53.130;18.104;2023-05-07T15:30:20;20.36;33.37
79494;SHT31;68951;53.130;18.104;2023-05-07T15:32:47;20.18;33.57
79494;SHT31;68951;53.130;18.104;2023-05-07T15:35:14;20.02;33.71
79494;SHT31;68951;53.130;18.104;2023-05-07T15:37:42;19.97;33.98
79494;SHT31;68951;53.130;18.104;2023-05-07T15:40:10;19.84;34.10
79494;SHT31;68951;53.130;18.104;2023-05-07T15:42:37;19.68;33.98
79494;SHT31;68951;53.130;18.104;2023-05-07T15:45:04;19.56;34.03
79494;SHT31;68951;53.130;18.104;2023-05-07T15:47:33;19.48;34.08
79494;SHT31;68951;53.130;18.104;2023-05-07T15:50:01;19.34;34.02
79494;SHT31;68951;53.130;18.104;2023-05-07T15:52:29;19.20;34.00